< < Back
Terminal Aerodrome Forecast


Current Version              Previous Versions:   1  2  3  4  5  6  7  8  9  

Terminal Aerodrome Forecast

455
FTUS42 KCAE 201900 AAA
TAFCAE
TAF AMD
KCAE 201944Z 2020/2118 20011G18KT P6SM SCT025 BKN040 OVC120
     FM202200 23011G20KT P6SM VCTS SCT020 BKN035CB OVC080
     FM210300 24009G15KT P6SM BKN040 BKN120
     FM210900 27007KT P6SM SCT040=

Latest METAR

953
SAUS80 KWBC 210100
MTRCAE
METAR KCAE 210056Z 19003KT 10SM SCT200 21/17 A2970 RMK AO2 SLP054
T02060167


USA.gov is the U.S. government's official web portal to all federal, state and local government web resources and services.